EDC weather

Austin Executive Airport
Austin, Texas, United States

Public forecast

Using degrees Fahrenheit for public forecast. Weather courtesy of forecast.io.

Closest aviation weather report (METAR) to Austin Executive Airport

Closest report is Austin Executive Airport, 0.0 nm (0.0 km) ENE. Retrieved 2019/12/10 18:35 UTC (0 seconds ago):

KEDC 101835Z AUTO 01012KT 10SM OVC009 05/04 A3027 RMK AO2

Closest aviation forecast (TAF) to Austin Executive Airport

Closest forecast is Austin Bergstrom International Airport, 13.3 nm (24.7 km) SSW. Retrieved 2019/12/10 18:22 UTC (10 minutes ago):

TAF KAUS 101720Z 1018/1124 35010KT 6SM -RA BR OVC010 FM102100 36013KT P6SM BKN015 FM110200 36008KT P6SM BKN025 FM110300 01005KT P6SM SCT040